Time;durP1;ratioP1;P1;durP2;ratioP2;P2;SDS_P1;SDS_P2;PMS_P1;PMS_P2;Temp;Humidity;BMP_temperature;BMP_pressure;BME280_temperature;BME280_humidity;BME280_pressure;Samples;Min_cycle;Max_cycle;Signal;HPM_P1;HPM_P2
2022/10/02 00:02:18;;;;;;;4.03;0.90;;;;;;;11.01;100.00;100930.31;6270204;22;20497;-77
2022/10/02 00:05:24;;;;;;;1.03;0.73;;;;;;;11.01;100.00;100935.59;6248120;28;20050;-75
2022/10/02 00:08:31;;;;;;;2.47;0.77;;;;;;;11.01;100.00;100932.94;6248329;28;20049;-74
2022/10/02 00:11:42;;;;;;;12.80;1.02;;;;;;;11.05;100.00;100929.22;6247849;28;20049;-74
2022/10/02 00:14:47;;;;;;;1.55;0.80;;;;;;;11.05;100.00;100923.97;6247686;28;20046;-74
2022/10/02 00:17:52;;;;;;;1.08;0.70;;;;;;;11.03;100.00;100917.94;6249162;28;20060;-78
2022/10/02 00:21:03;;;;;;;2.15;0.65;;;;;;;11.04;100.00;100927.53;6249450;28;20076;-75
2022/10/02 00:24:08;;;;;;;1.77;0.52;;;;;;;10.98;100.00;100919.94;6249322;28;20049;-77
2022/10/02 00:27:19;;;;;;;3.90;1.00;;;;;;;11.00;100.00;100918.09;6248033;28;20054;-77
2022/10/02 00:30:22;;;;;;;1.75;0.63;;;;;;;10.98;100.00;100921.72;6247604;28;20056;-77
2022/10/02 00:33:32;;;;;;;2.75;0.88;;;;;;;10.98;100.00;100932.25;6247846;28;20053;-77
2022/10/02 00:36:45;;;;;;;3.78;0.75;;;;;;;11.00;100.00;100928.63;6223095;28;20072;-77
2022/10/02 00:40:00;;;;;;;1.92;1.33;;;;;;;10.97;100.00;100926.16;6222967;28;20046;-77
2022/10/02 00:43:10;;;;;;;3.22;1.50;;;;;;;10.95;100.00;100929.81;6223410;28;20072;-77
2022/10/02 00:46:30;;;;;;;3.65;0.68;;;;;;;10.89;100.00;100931.78;6222619;28;20052;-77
2022/10/02 00:50:07;;;;;;;3.35;0.68;;;;;;;10.85;100.00;100932.03;6223374;28;20054;-77
2022/10/02 00:53:25;;;;;;;6.57;1.20;;;;;;;10.84;100.00;100940.84;6219902;28;20050;-77
2022/10/02 00:56:37;;;;;;;1.15;0.70;;;;;;;10.82;100.00;100940.09;6222586;28;20046;-77
2022/10/02 00:59:53;;;;;;;0.73;0.30;;;;;;;10.77;100.00;100934.22;6246780;28;20056;-77
2022/10/02 01:03:07;;;;;;;1.75;0.98;;;;;;;10.73;100.00;100930.06;6247248;28;20493;-77
2022/10/02 01:06:09;;;;;;;3.08;0.77;;;;;;;10.69;100.00;100947.75;6246911;28;20056;-77
2022/10/02 01:09:12;;;;;;;5.13;0.85;;;;;;;10.66;100.00;100942.63;6247243;28;20053;-77
2022/10/02 01:12:14;;;;;;;4.22;0.60;;;;;;;10.62;100.00;100948.97;6246427;28;20050;-77
2022/10/02 01:15:18;;;;;;;3.00;0.73;;;;;;;10.58;100.00;100950.06;6246320;28;20049;-77
2022/10/02 01:18:22;;;;;;;5.15;0.82;;;;;;;10.51;100.00;100972.31;6246765;28;20500;-77
2022/10/02 01:21:32;;;;;;;5.45;0.77;;;;;;;10.49;100.00;100977.66;6246388;28;20053;-74
2022/10/02 01:24:39;;;;;;;1.27;0.85;;;;;;;10.45;100.00;100965.59;6246331;28;20052;-77
2022/10/02 01:27:43;;;;;;;4.40;0.80;;;;;;;10.40;100.00;100955.31;6246755;28;20548;-77
2022/10/02 01:30:50;;;;;;;1.88;1.00;;;;;;;10.40;100.00;100957.94;6246431;28;20052;-77
2022/10/02 01:33:52;;;;;;;2.33;1.02;;;;;;;10.44;100.00;100949.91;6246391;28;20053;-77
2022/10/02 01:36:54;;;;;;;2.40;0.60;;;;;;;10.43;100.00;100953.44;6246797;28;20049;-77
2022/10/02 01:39:59;;;;;;;1.92;0.90;;;;;;;10.38;100.00;100958.94;6246164;28;20099;-77
2022/10/02 01:43:05;;;;;;;4.03;0.70;;;;;;;10.34;100.00;100963.47;6246962;28;20084;-77
2022/10/02 01:46:27;;;;;;;6.68;1.10;;;;;;;10.29;100.00;100960.22;6246385;28;20049;-77
2022/10/02 01:49:55;;;;;;;1.40;0.73;;;;;;;10.26;100.00;100959.53;6247021;28;20045;-77
2022/10/02 01:53:06;;;;;;;1.23;0.75;;;;;;;10.24;100.00;100958.72;6246830;28;20053;-77
2022/10/02 01:56:15;;;;;;;0.50;0.40;;;;;;;10.19;100.00;100960.72;6246459;28;20049;-76
2022/10/02 01:59:30;;;;;;;1.85;0.80;;;;;;;10.15;100.00;100965.28;6246864;28;20045;-75
2022/10/02 02:02:42;;;;;;;1.70;0.60;;;;;;;10.11;100.00;100959.31;6246029;28;20104;-75
2022/10/02 02:05:49;;;;;;;3.13;0.70;;;;;;;10.10;100.00;100962.03;6249148;28;20041;-75
2022/10/02 02:09:03;;;;;;;5.35;1.25;;;;;;;10.08;100.00;100948.97;6251628;28;20056;-75
2022/10/02 02:12:12;;;;;;;3.97;1.33;;;;;;;10.09;100.00;100963.81;6251218;28;20049;-76
2022/10/02 02:15:22;;;;;;;2.65;0.95;;;;;;;10.07;100.00;100956.91;6250963;28;20052;-76
2022/10/02 02:18:29;;;;;;;5.40;0.93;;;;;;;10.07;100.00;100964.78;6251417;28;20049;-75
2022/10/02 02:21:34;;;;;;;1.25;0.70;;;;;;;10.07;100.00;100960.38;6251056;28;20643;-75
2022/10/02 02:24:40;;;;;;;3.38;0.75;;;;;;;10.05;100.00;100966.66;6251345;28;20049;-75
2022/10/02 02:27:45;;;;;;;8.35;1.08;;;;;;;10.07;100.00;100970.88;6251414;28;20064;-75
2022/10/02 02:30:52;;;;;;;4.38;1.20;;;;;;;10.11;100.00;100977.69;6250796;28;20378;-74
2022/10/02 02:33:58;;;;;;;4.05;0.70;;;;;;;10.15;100.00;100975.78;6250911;28;20049;-75
2022/10/02 02:37:05;;;;;;;0.90;0.73;;;;;;;10.19;100.00;100968.59;6257392;28;20179;-76
2022/10/02 02:40:11;;;;;;;6.28;1.80;;;;;;;10.19;100.00;100972.09;6275687;28;20055;-76
2022/10/02 02:43:18;;;;;;;1.83;1.17;;;;;;;10.19;100.00;100960.72;6274510;28;20049;-76
2022/10/02 02:46:26;;;;;;;3.20;1.27;;;;;;;10.19;100.00;100965.97;6275284;28;20056;-76
2022/10/02 02:49:31;;;;;;;6.73;1.43;;;;;;;10.21;100.00;100966.75;6273498;28;20420;-75
2022/10/02 02:52:41;;;;;;;5.63;2.00;;;;;;;10.24;100.00;100969.22;6250041;28;20061;-76
2022/10/02 02:55:47;;;;;;;2.47;1.00;;;;;;;10.27;100.00;100971.75;6250818;28;20057;-75
2022/10/02 02:58:54;;;;;;;4.93;1.35;;;;;;;10.31;100.00;100973.28;6250683;28;20120;-75
2022/10/02 03:01:57;;;;;;;1.90;0.95;;;;;;;10.33;100.00;100972.28;6250036;28;20049;-76
2022/10/02 03:04:58;;;;;;;2.15;0.80;;;;;;;10.35;100.00;100967.81;6250267;28;20469;-76
2022/10/02 03:08:03;;;;;;;12.75;1.88;;;;;;;10.36;100.00;100974.78;6250388;28;20050;-76
2022/10/02 03:11:15;;;;;;;7.13;1.20;;;;;;;10.35;100.00;100975.69;6249893;28;20433;-75
2022/10/02 03:14:37;;;;;;;3.75;2.13;;;;;;;10.37;100.00;100968.59;6249135;28;20056;-75
2022/10/02 03:17:55;;;;;;;3.30;1.45;;;;;;;10.32;100.00;100967.97;6248290;28;20044;-75
2022/10/02 03:21:06;;;;;;;7.25;1.15;;;;;;;10.33;100.00;100971.44;6246949;28;20049;-75
2022/10/02 03:24:15;;;;;;;4.28;1.10;;;;;;;10.31;100.00;100978.53;6249454;28;20500;-74
2022/10/02 03:27:26;;;;;;;2.72;1.40;;;;;;;10.29;100.00;100975.16;6249814;28;20052;-75
2022/10/02 03:30:28;;;;;;;11.07;1.52;;;;;;;10.27;100.00;100977.00;6236362;28;20072;-76
2022/10/02 03:33:35;;;;;;;4.13;1.13;;;;;;;10.23;100.00;100971.00;6250168;28;20417;-75
2022/10/02 03:36:37;;;;;;;3.30;0.93;;;;;;;10.21;100.00;100977.25;6249104;28;20509;-76
2022/10/02 03:39:40;;;;;;;1.48;0.98;;;;;;;10.18;100.00;100977.41;6249481;28;20050;-76
2022/10/02 03:42:42;;;;;;;5.22;1.10;;;;;;;10.15;100.00;100976.63;6244978;28;20050;-76
2022/10/02 03:45:43;;;;;;;2.95;1.23;;;;;;;10.16;100.00;100967.81;6247277;28;20045;-75
2022/10/02 03:48:46;;;;;;;7.88;1.02;;;;;;;10.16;100.00;100973.06;6248011;28;20041;-75
2022/10/02 03:51:47;;;;;;;5.20;1.08;;;;;;;10.18;100.00;100977.41;6247588;28;20073;-75
2022/10/02 03:54:53;;;;;;;4.45;2.50;;;;;;;10.18;100.00;100974.78;6249302;28;20061;-76
2022/10/02 03:57:56;;;;;;;8.05;1.42;;;;;;;10.19;100.00;100981.75;6249708;28;20041;-76
2022/10/02 04:01:04;;;;;;;4.78;1.20;;;;;;;10.19;100.00;100992.25;6249083;28;20053;-76
2022/10/02 04:04:13;;;;;;;2.28;1.25;;;;;;;10.15;100.00;100991.53;6249531;28;20046;-76
2022/10/02 04:07:22;;;;;;;2.05;0.88;;;;;;;10.13;100.00;100993.41;6249152;28;20060;-75
2022/10/02 04:10:30;;;;;;;4.27;1.20;;;;;;;10.10;100.00;100988.28;6248897;28;20492;-75
2022/10/02 04:13:36;;;;;;;3.60;1.30;;;;;;;10.08;100.00;100991.00;6249203;28;20060;-75
2022/10/02 04:16:43;;;;;;;7.82;1.20;;;;;;;10.08;100.00;100992.75;6234095;28;20049;-75
2022/10/02 04:19:51;;;;;;;5.78;1.25;;;;;;;10.07;100.00;100984.00;6248157;28;20500;-76
2022/10/02 04:22:56;;;;;;;6.20;1.55;;;;;;;10.05;100.00;100985.88;6248299;28;20054;-75
2022/10/02 04:26:00;;;;;;;3.38;1.55;;;;;;;10.09;100.00;100994.47;6248119;28;20512;-76
2022/10/02 04:29:13;;;;;;;2.45;1.27;;;;;;;10.12;100.00;100991.66;6247418;28;20064;-76
2022/10/02 04:32:17;;;;;;;1.85;1.20;;;;;;;10.14;100.00;100997.72;6247881;28;20053;-76
2022/10/02 04:35:28;;;;;;;5.60;1.35;;;;;;;10.18;100.00;100995.81;6247521;28;20525;-75
2022/10/02 04:38:44;;;;;;;2.15;1.40;;;;;;;10.23;100.00;100996.44;6248446;28;20045;-76
2022/10/02 04:41:58;;;;;;;3.88;1.17;;;;;;;10.30;100.00;100995.22;6247979;28;20050;-76
2022/10/02 04:45:16;;;;;;;2.38;0.95;;;;;;;10.30;100.00;100984.72;6247766;28;20091;-76
2022/10/02 04:48:43;;;;;;;2.42;1.48;;;;;;;10.32;100.00;100993.41;6248260;28;20051;-76
2022/10/02 04:52:07;;;;;;;6.82;1.40;;;;;;;10.32;100.00;101004.75;6247459;28;20418;-75
2022/10/02 04:55:23;;;;;;;6.30;1.10;;;;;;;10.32;100.00;101004.75;6247763;28;20517;-76
2022/10/02 04:58:42;;;;;;;1.60;0.98;;;;;;;10.33;100.00;101011.69;6247798;28;20049;-75
2022/10/02 05:01:56;;;;;;;2.03;1.38;;;;;;;10.34;100.00;101017.81;6247230;28;20057;-75
2022/10/02 05:05:15;;;;;;;5.10;1.58;;;;;;;10.34;100.00;101018.66;6247874;28;20053;-76
2022/10/02 05:08:38;;;;;;;3.05;1.10;;;;;;;10.36;100.00;101022.06;6247709;28;20045;-76
2022/10/02 05:11:52;;;;;;;3.30;1.38;;;;;;;10.39;100.00;101021.06;6247190;28;20565;-76
2022/10/02 05:15:09;;;;;;;4.38;1.77;;;;;;;10.46;100.00;101021.63;6246884;28;20056;-76
2022/10/02 05:18:28;;;;;;;2.95;1.70;;;;;;;10.51;100.00;101017.84;6247671;28;20056;-76
2022/10/02 05:21:48;;;;;;;6.88;2.08;;;;;;;10.55;100.00;101018.56;6247112;28;20076;-76
2022/10/02 05:25:05;;;;;;;5.85;1.70;;;;;;;10.61;100.00;101020.88;6247166;28;20049;-76
2022/10/02 05:28:38;;;;;;;5.68;2.05;;;;;;;10.69;100.00;101025.75;6247565;28;20042;-75
2022/10/02 05:31:54;;;;;;;5.47;2.15;;;;;;;10.75;100.00;101028.91;6246655;28;20053;-75
2022/10/02 05:35:11;;;;;;;7.15;1.92;;;;;;;10.78;100.00;101030.56;6246525;28;20061;-76
2022/10/02 05:38:23;;;;;;;2.47;1.58;;;;;;;10.76;100.00;101033.25;6247253;28;20053;-75
2022/10/02 05:41:37;;;;;;;4.60;2.00;;;;;;;10.76;100.00;101033.25;6250836;28;20056;-76
2022/10/02 05:44:42;;;;;;;6.15;2.03;;;;;;;10.76;100.00;101032.41;6251807;28;20050;-76
2022/10/02 05:47:45;;;;;;;6.47;2.00;;;;;;;10.77;100.00;101021.81;6251943;28;20176;-76
2022/10/02 05:50:52;;;;;;;6.72;1.90;;;;;;;10.79;100.00;101024.38;6251490;28;20053;-76
2022/10/02 05:53:59;;;;;;;9.98;2.05;;;;;;;10.76;100.00;101019.25;6251839;28;20532;-75
2022/10/02 05:57:08;;;;;;;10.05;2.70;;;;;;;10.80;100.00;101028.69;6251978;28;20405;-76
2022/10/02 06:03:17;;;;;;;5.03;1.75;;;;;;;10.90;100.00;101037.81;6339514;22;20393;-77
2022/10/02 06:06:24;;;;;;;6.70;2.05;;;;;;;10.94;100.00;101036.72;6239565;28;20054;-77
2022/10/02 06:09:30;;;;;;;7.10;2.38;;;;;;;10.96;100.00;101037.53;6228256;28;20050;-77
2022/10/02 06:12:39;;;;;;;5.57;2.30;;;;;;;10.99;100.00;101037.38;6250748;28;20061;-77
2022/10/02 06:15:47;;;;;;;19.00;4.22;;;;;;;11.05;100.00;101049.38;6250398;28;20566;-77
2022/10/02 06:18:54;;;;;;;6.20;2.58;;;;;;;11.13;100.00;101052.47;6251088;28;20053;-77
2022/10/02 06:22:01;;;;;;;12.30;2.25;;;;;;;11.18;100.00;101063.59;6250389;28;20059;-78
2022/10/02 06:25:08;;;;;;;6.93;2.25;;;;;;;11.21;100.00;101062.56;6250536;28;20056;-77
2022/10/02 06:28:17;;;;;;;10.35;2.20;;;;;;;11.22;100.00;101054.63;6250575;28;20537;-77
2022/10/02 06:31:26;;;;;;;9.82;2.05;;;;;;;11.23;100.00;101055.47;6250282;28;20046;-77
2022/10/02 06:34:28;;;;;;;9.73;2.35;;;;;;;11.21;100.00;101059.94;6249938;28;20049;-76
2022/10/02 06:37:45;;;;;;;9.45;2.05;;;;;;;11.28;100.00;101058.72;6250468;28;20041;-77
2022/10/02 06:40:55;;;;;;;6.57;2.50;;;;;;;11.25;100.00;101056.22;6250032;28;20084;-77
2022/10/02 06:44:15;;;;;;;9.90;2.70;;;;;;;11.28;100.00;101069.25;6249130;28;20440;-77
2022/10/02 06:47:35;;;;;;;7.93;2.30;;;;;;;11.28;100.00;101070.09;6249298;28;20045;-77
2022/10/02 06:50:49;;;;;;;8.07;2.50;;;;;;;11.27;100.00;101072.81;6249110;28;20065;-76
2022/10/02 06:54:07;;;;;;;3.72;1.95;;;;;;;11.27;100.00;101073.66;6249215;28;20048;-77
2022/10/02 06:57:26;;;;;;;6.38;2.20;;;;;;;11.34;100.00;101077.66;6246597;28;20037;-76
2022/10/02 07:00:32;;;;;;;6.78;2.08;;;;;;;11.36;100.00;101070.56;6246240;28;20523;-77
2022/10/02 07:03:48;;;;;;;11.90;2.55;;;;;;;11.38;100.00;101070.47;6249478;28;20072;-77
2022/10/02 07:07:04;;;;;;;3.90;1.73;;;;;;;11.43;100.00;101076.34;6249651;28;20045;-78
2022/10/02 07:10:30;;;;;;;7.05;2.25;;;;;;;11.48;100.00;101076.94;6249914;28;20049;-78
2022/10/02 07:13:53;;;;;;;8.20;2.28;;;;;;;11.59;100.00;101073.78;6249570;28;20160;-77
2022/10/02 07:17:17;;;;;;;11.40;2.42;;;;;;;11.63;100.00;101076.16;6249057;28;20038;-77
2022/10/02 07:20:31;;;;;;;9.20;2.50;;;;;;;11.71;100.00;101086.28;6245262;28;20045;-76
2022/10/02 07:23:50;;;;;;;11.65;2.72;;;;;;;11.75;100.00;101087.81;6249639;28;20060;-76
2022/10/02 07:26:55;;;;;;;7.25;1.83;;;;;;;11.79;100.00;101088.50;6248481;28;20045;-77
2022/10/02 07:30:03;;;;;;;10.02;3.33;;;;;;;11.86;100.00;101097.84;6246584;28;20061;-77
2022/10/02 07:33:17;;;;;;;6.40;2.60;;;;;;;11.89;100.00;101102.91;6240815;28;20429;-77
2022/10/02 07:36:31;;;;;;;8.32;2.22;;;;;;;11.89;100.00;101095.00;6245315;28;20049;-78
2022/10/02 07:39:47;;;;;;;20.73;2.92;;;;;;;12.01;100.00;101101.44;6253006;28;20057;-76
2022/10/02 07:42:59;;;;;;;4.40;2.10;;;;;;;12.05;100.00;101109.09;6249590;28;20045;-77
2022/10/02 07:46:13;;;;;;;5.13;2.30;;;;;;;12.09;100.00;101115.88;6250292;28;20052;-77
2022/10/02 07:49:31;;;;;;;6.93;1.85;;;;;;;12.18;100.00;101125.94;6250303;28;20076;-77
2022/10/02 07:52:42;;;;;;;11.93;2.40;;;;;;;12.30;100.00;101144.63;6249162;28;20049;-77
2022/10/02 07:55:48;;;;;;;12.77;1.70;;;;;;;12.38;100.00;101138.00;6249095;28;20046;-77
2022/10/02 07:58:54;;;;;;;6.63;2.03;;;;;;;12.40;100.00;101140.59;6248491;28;20056;-76
2022/10/02 08:01:56;;;;;;;14.90;2.97;;;;;;;12.46;100.00;101144.66;6247400;28;20046;-76
2022/10/02 08:05:03;;;;;;;7.03;2.65;;;;;;;12.52;100.00;101147.81;6247909;28;20049;-76
2022/10/02 08:08:14;;;;;;;10.18;2.30;;;;;;;12.45;100.00;101149.09;6250253;28;20041;-79
2022/10/02 08:11:20;;;;;;;7.03;2.30;;;;;;;12.51;100.00;101146.09;6251104;28;20057;-79
2022/10/02 08:14:27;;;;;;;14.75;3.92;;;;;;;12.54;100.00;101153.84;6246241;28;20053;-79
2022/10/02 08:17:32;;;;;;;12.73;2.90;;;;;;;12.58;100.00;101157.16;6230563;28;20046;-78
2022/10/02 08:20:38;;;;;;;8.98;2.92;;;;;;;12.69;100.00;101158.28;6234695;28;20052;-77
2022/10/02 08:23:46;;;;;;;5.10;2.10;;;;;;;12.82;100.00;101154.97;6248509;28;20647;-77
2022/10/02 08:26:52;;;;;;;10.75;1.90;;;;;;;12.88;100.00;101157.25;6247995;28;20045;-78
2022/10/02 08:29:57;;;;;;;5.32;2.10;;;;;;;12.85;100.00;101160.03;6231041;28;20077;-77
2022/10/02 08:32:58;;;;;;;6.18;2.08;;;;;;;12.90;100.00;101158.03;6223176;28;20053;-77
2022/10/02 08:36:28;;;;;;;5.65;2.08;;;;;;;12.86;100.00;101154.69;6222852;28;20505;-77
2022/10/02 08:39:49;;;;;;;5.25;1.92;;;;;;;13.01;100.00;101157.41;6205817;28;20049;-77
2022/10/02 08:43:26;;;;;;;7.93;1.73;;;;;;;13.10;100.00;101168.28;6222919;28;20054;-77
2022/10/02 08:46:57;;;;;;;5.93;1.77;;;;;;;13.27;100.00;101163.88;6235143;28;20053;-76
2022/10/02 08:50:32;;;;;;;4.93;1.70;;;;;;;13.27;100.00;101167.34;6247091;28;20056;-77
2022/10/02 08:54:10;;;;;;;5.28;1.88;;;;;;;13.27;100.00;101179.72;6247131;28;20061;-77
2022/10/02 08:57:38;;;;;;;8.60;2.33;;;;;;;13.39;100.00;101186.91;6247360;28;20048;-76
2022/10/02 09:00:53;;;;;;;13.30;2.00;;;;;;;13.36;100.00;101177.38;6246796;28;20046;-77
2022/10/02 09:04:27;;;;;;;8.00;1.85;;;;;;;13.49;100.00;101180.16;6246884;28;20142;-77
2022/10/02 09:08:07;;;;;;;10.10;2.42;;;;;;;13.56;100.00;101178.84;6247434;28;20509;-77
2022/10/02 09:11:40;;;;;;;5.25;1.52;;;;;;;13.53;100.00;101184.28;6222480;28;20057;-78
2022/10/02 09:14:49;;;;;;;8.18;1.77;;;;;;;13.55;100.00;101173.66;6227695;28;20053;-79
2022/10/02 09:18:09;;;;;;;3.03;1.10;;;;;;;13.62;100.00;101177.63;6225144;28;20050;-78
2022/10/02 09:21:16;;;;;;;5.80;1.30;;;;;;;13.70;100.00;101180.66;6222845;28;20061;-78
2022/10/02 09:24:55;;;;;;;12.50;1.20;;;;;;;13.82;100.00;101185.22;6234266;28;20049;-79
2022/10/02 09:28:45;;;;;;;12.60;1.43;;;;;;;13.89;100.00;101189.19;6246796;28;20103;-78
2022/10/02 09:32:42;;;;;;;6.07;1.15;;;;;;;13.96;100.00;101185.25;6201392;28;20811;-78
2022/10/02 09:36:05;;;;;;;2.85;1.05;;;;;;;14.11;100.00;101178.16;6246566;28;20060;-77
2022/10/02 09:39:36;;;;;;;10.13;1.48;;;;;;;14.18;100.00;101171.56;6248750;28;20049;-78
2022/10/02 09:43:06;;;;;;;5.10;1.30;;;;;;;14.17;100.00;101175.16;6247940;28;20060;-78
2022/10/02 09:46:41;;;;;;;4.75;1.52;;;;;;;14.24;100.00;101166.84;6217199;28;20061;-78
2022/10/02 09:50:33;;;;;;;3.58;1.30;;;;;;;14.30;100.00;101169.94;6217456;28;20057;-79
2022/10/02 09:54:02;;;;;;;4.88;1.15;;;;;;;14.38;100.00;101166.84;6225600;28;20053;-78
2022/10/02 09:57:38;;;;;;;4.90;0.93;;;;;;;14.47;100.00;101179.47;6224554;28;20502;-77
2022/10/02 10:01:06;;;;;;;3.90;0.80;;;;;;;14.57;100.00;101190.38;6230089;28;20050;-76
2022/10/02 10:04:45;;;;;;;3.63;0.70;;;;;;;14.66;100.00;101184.50;6222546;28;20050;-78
2022/10/02 10:08:04;;;;;;;;;;;;;;;14.73;100.00;101177.03;6226337;28;20056;-76
2022/10/02 10:11:33;;;;;;;10.98;0.82;;;;;;;14.70;100.00;101188.66;6223523;28;19921;-77
2022/10/02 10:15:00;;;;;;;9.52;1.13;;;;;;;14.71;100.00;101177.94;6221674;28;20081;-77
2022/10/02 10:18:41;;;;;;;5.18;1.10;;;;;;;14.65;100.00;101181.00;6221703;28;20501;-77
2022/10/02 10:22:08;;;;;;;1.40;0.90;;;;;;;14.68;100.00;101186.09;6219847;28;20399;-77
2022/10/02 10:25:37;;;;;;;5.57;0.68;;;;;;;14.69;100.00;101173.72;6221686;28;20060;-77
2022/10/02 10:29:03;;;;;;;11.32;1.17;;;;;;;14.70;100.00;101176.25;6227004;28;20409;-76
2022/10/02 10:32:32;;;;;;;3.22;0.80;;;;;;;14.65;100.00;101183.66;6230594;28;20057;-79
2022/10/02 10:35:52;;;;;;;5.70;1.40;;;;;;;14.46;100.00;101198.94;6230075;28;20053;-79
2022/10/02 10:39:06;;;;;;;8.57;1.23;;;;;;;14.30;100.00;101193.75;6226037;28;20049;-77
2022/10/02 10:42:32;;;;;;;5.13;0.77;;;;;;;14.17;100.00;101206.88;6225363;28;20411;-76
2022/10/02 10:45:52;;;;;;;4.15;0.93;;;;;;;14.08;100.00;101206.56;6225413;28;20049;-76
2022/10/02 10:49:10;;;;;;;9.95;1.23;;;;;;;14.07;100.00;101202.22;6226735;28;20502;-76
2022/10/02 10:52:19;;;;;;;4.97;1.00;;;;;;;14.13;100.00;101205.38;6229392;28;20058;-75
2022/10/02 10:55:32;;;;;;;;;;;;;;;14.29;100.00;101201.78;6227528;28;20050;-77
2022/10/02 10:58:53;;;;;;;4.32;1.67;;;;;;;14.50;100.00;101203.13;6225470;28;19932;-76
2022/10/02 11:02:12;;;;;;;8.52;1.50;;;;;;;14.68;100.00;101209.91;6232045;28;20053;-76
2022/10/02 11:05:24;;;;;;;5.93;0.98;;;;;;;14.81;100.00;101206.50;6229967;28;20056;-76
2022/10/02 11:08:57;;;;;;;5.20;0.80;;;;;;;15.02;100.00;101209.56;6225581;28;20042;-76
2022/10/02 11:12:38;;;;;;;5.90;0.75;;;;;;;15.14;100.00;101212.25;6225336;28;20125;-76
2022/10/02 11:15:59;;;;;;;3.42;0.65;;;;;;;15.20;99.89;101203.91;6226718;28;20628;-77
2022/10/02 11:19:28;;;;;;;1.27;0.75;;;;;;;15.23;96.07;101201.06;6226742;28;20057;-76
2022/10/02 11:22:53;;;;;;;1.73;0.70;;;;;;;15.35;92.32;101212.66;6224827;28;20046;-75
2022/10/02 11:26:28;;;;;;;4.03;0.70;;;;;;;15.22;94.03;101217.06;6224654;28;20046;-75
2022/10/02 11:30:02;;;;;;;5.47;0.88;;;;;;;15.20;94.41;101217.16;6224703;28;20050;-76
2022/10/02 11:33:24;;;;;;;2.72;0.43;;;;;;;15.28;93.26;101221.09;6218445;28;20445;-76
2022/10/02 11:36:54;;;;;;;7.03;0.95;;;;;;;15.22;93.09;101225.00;6227034;28;20060;-76
2022/10/02 11:40:34;;;;;;;1.75;0.60;;;;;;;15.13;95.46;101225.59;6224816;28;20050;-78
2022/10/02 11:43:51;;;;;;;3.65;1.05;;;;;;;15.08;95.09;101225.03;6152552;28;20055;-76
2022/10/02 11:47:12;;;;;;;2.95;0.77;;;;;;;15.25;92.86;101226.59;6226711;28;20057;-76
2022/10/02 11:50:46;;;;;;;2.00;0.60;;;;;;;15.35;92.20;101222.38;6224231;28;20058;-76
2022/10/02 11:54:27;;;;;;;7.70;0.80;;;;;;;15.35;93.50;101227.69;6211357;28;20050;-77
2022/10/02 11:57:39;;;;;;;3.22;0.80;;;;;;;15.27;94.16;101224.72;6196078;28;20061;-76
2022/10/02 12:01:16;;;;;;;2.97;0.52;;;;;;;15.27;98.25;101227.34;6243334;23;20386;-76
2022/10/02 12:04:34;;;;;;;3.25;0.57;;;;;;;15.42;100.00;101232.47;6199401;28;20055;-75
2022/10/02 12:07:44;;;;;;;2.85;1.02;;;;;;;15.41;99.55;101225.50;6199485;28;20046;-76
2022/10/02 12:10:57;;;;;;;4.53;1.38;;;;;;;15.57;100.00;101229.75;6186505;28;20054;-75
2022/10/02 12:14:22;;;;;;;1.08;0.73;;;;;;;15.59;100.00;101233.19;6175167;28;20051;-76
2022/10/02 12:17:51;;;;;;;4.00;1.00;;;;;;;15.47;100.00;101233.03;6163819;28;20051;-76
2022/10/02 12:28:12;;;;;;;11.00;1.75;;;;;;;15.05;100.00;101244.63;6175124;28;20278;-76
2022/10/02 12:31:21;;;;;;;8.10;1.50;;;;;;;14.99;100.00;101239.72;6174661;28;20062;-75
2022/10/02 12:34:31;;;;;;;;;;;;;;;14.96;100.00;101239.91;6175027;28;20050;-75
2022/10/02 12:37:37;;;;;;;;;;;;;;;15.00;100.00;101244.06;6175292;28;20068;-74
2022/10/02 12:40:51;;;;;;;2.15;0.70;;;;;;;15.22;100.00;101246.19;6174199;28;19929;-75
2022/10/02 12:44:20;;;;;;;1.58;0.70;;;;;;;15.85;100.00;101247.34;6174466;28;20054;-76
2022/10/02 12:47:38;;;;;;;8.48;0.90;;;;;;;16.39;93.61;101247.16;6174800;28;20050;-76
2022/10/02 12:50:53;;;;;;;4.40;0.45;;;;;;;16.70;88.86;101238.75;6173468;28;20137;-76
2022/10/02 12:54:19;;;;;;;1.13;0.40;;;;;;;16.80;86.33;101254.03;6174213;28;20058;-76
2022/10/02 12:57:54;;;;;;;5.25;0.63;;;;;;;16.66;81.65;101242.56;6174461;28;20057;-75
2022/10/02 13:01:29;;;;;;;1.48;0.60;;;;;;;16.41;80.39;101254.06;6173843;28;20090;-76
2022/10/02 13:05:02;;;;;;;4.25;0.75;;;;;;;16.13;94.68;101251.66;6160472;28;20423;-76
2022/10/02 13:08:18;;;;;;;3.95;0.70;;;;;;;16.07;89.79;101255.53;6174031;28;20054;-75
2022/10/02 13:11:32;;;;;;;7.70;0.95;;;;;;;16.40;93.54;101256.84;6173584;28;20077;-76
2022/10/02 13:15:06;;;;;;;7.43;1.05;;;;;;;16.66;80.26;101250.53;6173869;28;20130;-75
2022/10/02 13:18:25;;;;;;;2.30;0.82;;;;;;;16.69;77.01;101249.47;6173986;28;20495;-76
2022/10/02 13:21:37;;;;;;;5.47;0.82;;;;;;;16.86;75.36;101253.63;6173710;28;20512;-76
2022/10/02 13:24:54;;;;;;;4.63;0.60;;;;;;;16.73;75.81;101254.50;6173590;28;20080;-75
2022/10/02 13:28:12;;;;;;;4.80;0.90;;;;;;;16.78;75.27;101254.16;6173865;28;20047;-76
2022/10/02 13:31:28;;;;;;;3.75;1.17;;;;;;;16.53;78.17;101260.31;6173612;28;20050;-75
2022/10/02 13:34:47;;;;;;;1.85;0.60;;;;;;;16.22;79.32;101262.47;6173469;28;20055;-75
2022/10/02 13:38:03;;;;;;;1.20;0.50;;;;;;;16.37;79.41;101263.19;6173756;28;20047;-75
2022/10/02 13:41:14;;;;;;;4.00;1.80;;;;;;;16.39;80.67;101261.28;6173290;28;20055;-75
2022/10/02 13:44:25;;;;;;;0.85;0.50;;;;;;;16.76;83.72;101263.19;6172993;28;20055;-76
2022/10/02 13:47:39;;;;;;;1.55;0.50;;;;;;;16.90;77.97;101266.56;6173753;28;20054;-75
2022/10/02 13:50:50;;;;;;;6.60;0.90;;;;;;;16.65;78.46;101282.50;6173279;28;20057;-76
2022/10/02 13:54:08;;;;;;;4.68;0.98;;;;;;;16.36;78.17;101276.59;6173129;28;20545;-76
2022/10/02 13:57:26;;;;;;;1.80;1.03;;;;;;;16.11;78.50;101286.19;6173606;28;20531;-75
2022/10/02 14:00:48;;;;;;;5.28;0.80;;;;;;;15.98;79.74;101290.63;6174062;28;20314;-75
2022/10/02 14:04:04;;;;;;;0.82;0.45;;;;;;;15.70;83.83;101318.13;6177997;28;20054;-75
2022/10/02 14:07:19;;;;;;;3.17;0.80;;;;;;;15.15;100.00;101329.59;6178284;28;20070;-75
2022/10/02 14:10:28;;;;;;;3.72;0.85;;;;;;;14.42;100.00;101338.44;6177600;28;20514;-75
2022/10/02 14:13:48;;;;;;;3.40;0.60;;;;;;;14.00;100.00;101330.41;6178295;28;20058;-75
2022/10/02 14:17:01;;;;;;;4.85;0.75;;;;;;;13.50;100.00;101336.81;6177912;28;20521;-75
2022/10/02 14:20:27;;;;;;;2.35;1.00;;;;;;;13.35;100.00;101320.88;6177701;28;20058;-75
2022/10/02 14:23:44;;;;;;;3.97;0.90;;;;;;;13.29;100.00;101326.47;6177971;28;20495;-75
2022/10/02 14:26:57;;;;;;;4.07;0.73;;;;;;;13.30;100.00;101340.53;6177807;28;20050;-75
2022/10/02 14:30:06;;;;;;;3.75;0.68;;;;;;;13.23;100.00;101347.94;6177373;28;20689;-75
2022/10/02 14:33:18;;;;;;;5.68;0.90;;;;;;;13.21;100.00;101344.50;6177631;28;20050;-75
2022/10/02 14:36:27;;;;;;;5.80;1.00;;;;;;;13.08;100.00;101338.16;6177367;28;20545;-75
2022/10/02 14:39:33;;;;;;;1.20;0.65;;;;;;;13.20;100.00;101335.72;6177312;28;20051;-75
2022/10/02 14:42:52;;;;;;;2.05;0.63;;;;;;;13.36;100.00;101337.56;6177248;28;20053;-75
2022/10/02 14:46:25;;;;;;;0.93;0.80;;;;;;;13.40;100.00;101344.38;6176849;28;20054;-75
2022/10/02 14:49:47;;;;;;;1.35;0.55;;;;;;;13.45;100.00;101344.97;6133682;28;20131;-75
2022/10/02 14:53:07;;;;;;;7.15;0.68;;;;;;;13.53;100.00;101344.53;6177281;28;20050;-75
2022/10/02 14:56:28;;;;;;;3.25;0.60;;;;;;;13.40;100.00;101339.09;6193980;28;20042;-73
2022/10/02 14:59:46;;;;;;;2.22;0.70;;;;;;;13.51;100.00;101341.97;6201066;28;20158;-74
2022/10/02 15:03:16;;;;;;;4.10;0.65;;;;;;;13.62;100.00;101344.84;6176707;28;20135;-74
2022/10/02 15:06:27;;;;;;;1.65;0.43;;;;;;;13.71;100.00;101348.78;6176383;28;20058;-75
2022/10/02 15:09:38;;;;;;;6.88;0.63;;;;;;;13.68;100.00;101349.81;6177179;28;20519;-75
2022/10/02 15:12:48;;;;;;;2.40;0.80;;;;;;;13.62;100.00;101354.56;6195646;28;20057;-74